createdAt,value
2022-08-07T00:00:24.772Z,72.58
2022-08-07T00:02:51.175Z,72.38
2022-08-07T00:05:20.503Z,72.39
2022-08-07T00:07:46.987Z,73.09
2022-08-07T00:10:26.184Z,73.46
2022-08-07T00:13:00.209Z,73.48
2022-08-07T00:15:36.023Z,73.19
2022-08-07T00:18:05.428Z,73.35
2022-08-07T00:20:35.355Z,73.24
2022-08-07T00:23:02.499Z,73.84
2022-08-07T00:25:28.943Z,73.19
2022-08-07T00:28:07.598Z,73.37
2022-08-07T00:30:34.006Z,73.84
2022-08-07T00:33:02.238Z,74.58
2022-08-07T00:35:30.006Z,74.92
2022-08-07T00:37:57.902Z,74.56
2022-08-07T00:40:36.674Z,74.73
2022-08-07T00:43:10.004Z,74.16
2022-08-07T00:45:38.856Z,74.38
2022-08-07T00:48:10.277Z,74.66
2022-08-07T00:50:50.279Z,74.23
2022-08-07T00:53:20.075Z,74.37
2022-08-07T00:56:00.463Z,74.61
2022-08-07T00:58:28.477Z,75.23
2022-08-07T01:00:54.902Z,75.15
2022-08-07T01:03:25.443Z,75.32
2022-08-07T01:06:08.406Z,75.54
2022-08-07T01:08:34.921Z,75.51
2022-08-07T01:12:04.821Z,75.69
2022-08-07T01:13:55.532Z,75.56
2022-08-07T01:16:30.379Z,75.94
2022-08-07T01:18:57.972Z,75.72
2022-08-07T01:21:26.225Z,75.82
2022-08-07T01:23:55.247Z,76.17
2022-08-07T01:26:22.673Z,76.43
2022-08-07T01:28:53.859Z,76.38
2022-08-07T01:31:21.339Z,76.14
2022-08-07T01:33:55.472Z,76.01
2022-08-07T01:36:33.808Z,75.96
2022-08-07T01:39:09.882Z,75.90
2022-08-07T01:41:39.001Z,76.54
2022-08-07T01:44:07.464Z,76.97
2022-08-07T01:46:34.460Z,76.76
2022-08-07T01:49:02.224Z,76.40
2022-08-07T01:52:03.815Z,75.99
2022-08-07T01:54:33.387Z,76.46
2022-08-07T01:57:20.482Z,76.64
2022-08-07T02:00:12.849Z,76.88
2022-08-07T02:03:18.939Z,76.62
2022-08-07T02:06:01.004Z,76.62
2022-08-07T02:08:29.763Z,76.32
2022-08-07T02:10:59.283Z,75.95
2022-08-07T02:13:58.193Z,75.55
2022-08-07T02:16:14.610Z,76.27
2022-08-07T02:18:46.823Z,76.70
2022-08-07T02:21:16.072Z,77.41
2022-08-07T02:23:43.764Z,77.48
2022-08-07T02:26:32.463Z,77.68
2022-08-07T02:28:58.397Z,77.87
2022-08-07T02:31:28.418Z,77.93
2022-08-07T02:34:03.446Z,77.50
2022-08-07T02:36:32.735Z,77.35
2022-08-07T02:39:01.098Z,77.26
2022-08-07T02:41:33.446Z,77.51
2022-08-07T02:44:05.033Z,77.29
2022-08-07T02:46:34.072Z,77.52
2022-08-07T02:49:04.525Z,77.45
2022-08-07T02:51:42.390Z,77.98
2022-08-07T02:54:17.962Z,77.97
2022-08-07T02:56:46.581Z,77.73
2022-08-07T02:59:16.329Z,77.45
2022-08-07T03:01:42.991Z,77.69
2022-08-07T03:04:14.491Z,77.37
2022-08-07T03:06:46.144Z,78.08
2022-08-07T03:09:41.843Z,78.08
2022-08-07T03:12:05.357Z,78.30
2022-08-07T03:14:36.088Z,77.59
2022-08-07T03:17:04.548Z,77.44
2022-08-07T03:19:36.950Z,77.67
2022-08-07T03:22:05.503Z,77.68
2022-08-07T03:24:32.000Z,78.02
2022-08-07T03:27:01.280Z,78.85
2022-08-07T03:29:37.765Z,78.75
2022-08-07T03:32:08.301Z,78.08
2022-08-07T03:34:39.233Z,77.08
2022-08-07T03:37:11.916Z,77.15
2022-08-07T03:39:46.249Z,78.16
2022-08-07T03:42:26.112Z,78.66
2022-08-07T03:44:57.808Z,78.34
2022-08-07T03:47:25.207Z,78.04
2022-08-07T03:49:55.968Z,77.35
2022-08-07T03:52:27.028Z,77.31
2022-08-07T03:54:57.317Z,76.71
2022-08-07T03:59:07.202Z,77.29
2022-08-07T04:00:21.097Z,78.48
2022-08-07T04:02:56.702Z,79.20
2022-08-07T04:05:24.007Z,78.55
2022-08-07T04:07:56.006Z,78.40
2022-08-07T04:10:22.565Z,78.82
2022-08-07T04:12:51.134Z,78.94
2022-08-07T04:15:18.239Z,79.47
2022-08-07T04:18:59.891Z,79.39
2022-08-07T04:20:31.881Z,78.80
2022-08-07T04:23:02.228Z,78.62
2022-08-07T04:25:36.026Z,78.24
2022-08-07T04:28:08.105Z,77.64
2022-08-07T04:30:39.569Z,77.41
2022-08-07T04:33:14.066Z,76.55
2022-08-07T04:35:44.606Z,77.09
2022-08-07T04:38:17.079Z,78.09
2022-08-07T04:40:52.816Z,78.36
2022-08-07T04:44:11.862Z,79.29
2022-08-07T04:46:34.893Z,79.02
2022-08-07T04:49:24.239Z,79.10
2022-08-07T04:52:14.769Z,78.98
2022-08-07T04:54:52.727Z,78.57
2022-08-07T04:58:13.074Z,77.97
2022-08-07T05:00:40.957Z,78.26
2022-08-07T05:03:17.265Z,77.45
2022-08-07T05:06:00.463Z,77.34
2022-08-07T05:08:59.870Z,78.34
2022-08-07T05:11:28.020Z,78.25
2022-08-07T05:14:52.508Z,78.39
2022-08-07T05:17:50.320Z,77.11
2022-08-07T05:20:10.038Z,76.95
2022-08-07T05:22:38.265Z,76.92
2022-08-07T05:25:08.745Z,76.99
2022-08-07T05:28:02.514Z,76.80
2022-08-07T05:30:30.146Z,76.91
2022-08-07T05:32:59.754Z,77.04
2022-08-07T05:35:33.382Z,77.50
2022-08-07T05:38:09.826Z,76.61
2022-08-07T05:40:37.234Z,75.98
2022-08-07T05:43:17.768Z,75.32
2022-08-07T05:45:47.880Z,75.82
2022-08-07T05:48:15.271Z,76.00
2022-08-07T05:50:43.341Z,76.09
2022-08-07T05:54:12.423Z,75.65
2022-08-07T05:56:03.815Z,75.36
2022-08-07T05:58:36.778Z,74.90
2022-08-07T06:01:05.976Z,74.31
2022-08-07T06:03:56.528Z,73.60
2022-08-07T06:06:23.920Z,74.14
2022-08-07T06:08:57.092Z,74.05
2022-08-07T06:11:25.115Z,72.91
2022-08-07T06:14:12.077Z,71.38
2022-08-07T06:16:40.012Z,71.57
2022-08-07T06:19:07.076Z,71.11
2022-08-07T06:22:14.570Z,70.70
2022-08-07T06:24:45.437Z,67.85
2022-08-07T06:27:09.075Z,67.83
2022-08-07T06:29:38.907Z,67.58
2022-08-07T06:32:05.727Z,67.33
2022-08-07T06:34:32.171Z,66.45
2022-08-07T06:36:59.703Z,64.00
2022-08-07T06:40:18.023Z,63.67
2022-08-07T06:42:19.084Z,64.80
2022-08-07T06:44:50.980Z,64.85
2022-08-07T06:47:18.504Z,64.78
2022-08-07T06:49:51.110Z,63.86
2022-08-07T06:52:31.778Z,63.78
2022-08-07T06:55:33.578Z,63.31
2022-08-07T06:57:56.843Z,61.43
2022-08-07T07:00:24.158Z,62.26
2022-08-07T07:02:54.249Z,59.72
2022-08-07T07:06:05.436Z,58.95
2022-08-07T07:08:18.911Z,59.48
2022-08-07T07:10:56.780Z,58.85
2022-08-07T07:13:43.636Z,57.27
2022-08-07T07:16:27.476Z,58.28
2022-08-07T07:18:59.889Z,58.33
2022-08-07T07:21:40.237Z,58.00
2022-08-07T07:24:20.319Z,58.44
2022-08-07T07:26:52.246Z,58.42
2022-08-07T07:29:39.626Z,57.88
2022-08-07T07:32:10.386Z,58.55
2022-08-07T07:34:39.644Z,58.12
2022-08-07T07:37:21.939Z,57.80
2022-08-07T07:39:56.230Z,57.47
2022-08-07T07:42:32.439Z,57.59
2022-08-07T07:45:02.007Z,57.15
2022-08-07T07:47:29.214Z,56.90
2022-08-07T07:50:33.336Z,56.75
2022-08-07T07:52:47.088Z,56.35
2022-08-07T07:55:14.494Z,56.32
2022-08-07T07:57:51.502Z,55.96
2022-08-07T08:00:29.053Z,56.19
2022-08-07T08:03:04.656Z,55.40
2022-08-07T08:05:50.455Z,54.83
2022-08-07T08:08:34.791Z,53.97
2022-08-07T08:11:09.234Z,54.80
2022-08-07T08:13:54.754Z,53.98
2022-08-07T08:16:25.303Z,55.16
2022-08-07T08:18:54.662Z,53.75
2022-08-07T08:21:55.673Z,53.13
2022-08-07T08:24:57.308Z,53.25
2022-08-07T08:27:37.253Z,53.56
2022-08-07T08:30:07.048Z,52.55
2022-08-07T08:32:39.287Z,52.28
2022-08-07T08:35:08.795Z,52.58
2022-08-07T08:38:00.630Z,52.11
2022-08-07T08:41:02.722Z,52.30
2022-08-07T08:43:55.894Z,51.66
2022-08-07T08:46:39.009Z,51.43
2022-08-07T08:49:13.215Z,50.25
2022-08-07T08:52:14.480Z,49.96
2022-08-07T08:55:21.149Z,49.67
2022-08-07T08:58:07.170Z,48.49
2022-08-07T09:00:51.847Z,46.46
2022-08-07T09:03:48.115Z,47.92
2022-08-07T09:06:25.547Z,46.88
2022-08-07T09:09:00.122Z,45.92
2022-08-07T09:11:50.862Z,45.64
2022-08-07T09:14:34.612Z,45.36
2022-08-07T09:18:04.230Z,45.23
2022-08-07T09:20:35.341Z,46.15
2022-08-07T09:24:31.770Z,46.21
2022-08-07T09:26:07.236Z,44.88
2022-08-07T09:30:06.965Z,44.37
2022-08-07T09:31:56.073Z,43.43
2022-08-07T09:34:38.136Z,42.63
2022-08-07T09:37:16.091Z,42.04
2022-08-07T09:39:54.900Z,41.80
2022-08-07T09:42:46.976Z,41.48
2022-08-07T09:47:26.194Z,41.09
2022-08-07T09:48:56.080Z,43.06
2022-08-07T09:52:33.517Z,40.82
2022-08-07T09:55:37.007Z,40.92
2022-08-07T09:58:35.859Z,40.02
2022-08-07T10:01:51.740Z,39.69
2022-08-07T10:04:47.698Z,38.51
2022-08-07T10:07:52.205Z,37.76
2022-08-07T10:11:16.994Z,38.70
2022-08-07T10:13:55.361Z,38.70
2022-08-07T10:16:24.664Z,38.50
2022-08-07T10:19:01.216Z,37.83
2022-08-07T10:22:12.313Z,39.29
2022-08-07T10:24:49.635Z,38.41
2022-08-07T10:27:47.029Z,38.06
2022-08-07T10:30:18.526Z,39.53
2022-08-07T10:33:03.913Z,38.83
2022-08-07T10:35:55.097Z,38.44
2022-08-07T10:38:42.329Z,38.77
2022-08-07T10:41:54.666Z,38.67
2022-08-07T10:44:38.398Z,37.48
2022-08-07T10:47:26.795Z,37.04
2022-08-07T10:50:49.801Z,36.36
2022-08-07T10:53:28.065Z,35.18
2022-08-07T10:56:30.913Z,36.33
2022-08-07T10:59:21.412Z,36.61
2022-08-07T11:02:11.869Z,37.01
2022-08-07T11:04:57.800Z,38.15
2022-08-07T11:07:58.605Z,38.40
2022-08-07T11:10:56.594Z,38.92
2022-08-07T11:14:42.344Z,39.32
2022-08-07T11:16:51.314Z,40.48
2022-08-07T11:19:29.927Z,40.38
2022-08-07T11:22:18.937Z,40.79
2022-08-07T11:25:06.821Z,40.13
2022-08-07T11:28:02.680Z,39.53
2022-08-07T11:30:43.652Z,39.59
2022-08-07T11:33:48.708Z,38.64
2022-08-07T11:36:33.742Z,38.99
2022-08-07T11:39:10.032Z,39.13
2022-08-07T11:42:01.356Z,37.82
2022-08-07T11:44:58.175Z,37.93
2022-08-07T11:47:59.114Z,38.68
2022-08-07T11:50:33.160Z,37.74
2022-08-07T11:53:27.874Z,37.47
2022-08-07T11:56:28.066Z,38.36
2022-08-07T12:00:08.179Z,37.42
2022-08-07T12:02:37.617Z,37.16
2022-08-07T12:05:28.322Z,36.90
2022-08-07T12:08:25.953Z,37.07
2022-08-07T12:11:21.876Z,36.00
2022-08-07T12:13:54.668Z,36.34
2022-08-07T12:16:30.291Z,36.47
2022-08-07T12:19:21.343Z,37.08
2022-08-07T12:22:38.466Z,35.51
2022-08-07T12:25:08.111Z,34.23
2022-08-07T12:28:09.478Z,34.76
2022-08-07T12:30:36.387Z,35.09
2022-08-07T12:33:18.984Z,35.14
2022-08-07T12:35:58.145Z,35.57
2022-08-07T12:38:36.881Z,34.63
2022-08-07T12:41:09.862Z,34.26
2022-08-07T12:44:03.674Z,34.13
2022-08-07T12:47:01.344Z,34.46
2022-08-07T12:49:48.855Z,34.23
2022-08-07T12:52:33.935Z,34.13
2022-08-07T12:55:21.649Z,32.73
2022-08-07T12:58:06.974Z,33.49
2022-08-07T13:00:50.345Z,32.70
2022-08-07T13:04:02.623Z,31.69
2022-08-07T13:07:00.880Z,31.00
2022-08-07T13:10:18.901Z,29.29
2022-08-07T13:13:13.105Z,29.63
2022-08-07T13:16:05.454Z,28.80
2022-08-07T13:18:57.274Z,28.15
2022-08-07T13:21:37.338Z,26.68
2022-08-07T13:24:29.181Z,26.05
2022-08-07T13:27:05.419Z,25.93
2022-08-07T13:30:05.653Z,26.78
2022-08-07T13:32:41.218Z,25.74
2022-08-07T13:35:12.481Z,25.39
2022-08-07T13:38:00.812Z,26.58
2022-08-07T13:40:42.178Z,24.63
2022-08-07T13:43:15.314Z,24.48
2022-08-07T13:46:12.526Z,23.34
2022-08-07T13:48:34.514Z,24.31
2022-08-07T13:51:27.675Z,24.24
2022-08-07T13:54:02.058Z,23.69
2022-08-07T13:56:36.313Z,23.81
2022-08-07T13:59:17.605Z,22.89
2022-08-07T14:02:04.691Z,23.95
2022-08-07T14:04:36.338Z,22.88
2022-08-07T14:07:09.293Z,24.41
2022-08-07T14:10:01.402Z,24.64
2022-08-07T14:12:41.766Z,24.33
2022-08-07T14:15:18.775Z,23.92
2022-08-07T14:18:24.530Z,24.50
2022-08-07T14:20:48.949Z,25.18
2022-08-07T14:23:31.559Z,24.46
2022-08-07T14:26:30.470Z,24.05
2022-08-07T14:29:10.584Z,24.14
2022-08-07T14:31:57.684Z,25.75
2022-08-07T14:34:29.749Z,25.87
2022-08-07T14:37:02.031Z,25.90
2022-08-07T14:40:18.193Z,25.20
2022-08-07T14:42:25.198Z,23.68
2022-08-07T14:44:53.931Z,24.05
2022-08-07T14:47:28.340Z,24.52
2022-08-07T14:49:59.464Z,23.82
2022-08-07T14:52:28.968Z,24.50
2022-08-07T14:54:58.509Z,25.03
2022-08-07T14:57:54.404Z,23.60
2022-08-07T15:00:13.042Z,23.02
2022-08-07T15:03:18.917Z,23.81
2022-08-07T15:14:16.897Z,24.91
2022-08-07T15:20:30.878Z,25.89
2022-08-07T15:25:36.638Z,27.27
2022-08-07T15:28:36.417Z,27.53
2022-08-07T15:31:04.588Z,29.22
2022-08-07T15:37:02.803Z,31.64
2022-08-07T15:39:18.519Z,30.63
2022-08-07T15:42:45.154Z,30.42
2022-08-07T15:44:52.143Z,29.07
2022-08-07T15:47:19.678Z,29.08
2022-08-07T15:50:05.326Z,28.65
2022-08-07T15:52:34.738Z,29.14
2022-08-07T15:55:08.963Z,28.88
2022-08-07T15:57:48.246Z,29.86
2022-08-07T16:00:32.063Z,29.53
2022-08-07T16:03:03.593Z,29.41
2022-08-07T16:05:33.409Z,29.29
2022-08-07T16:08:30.697Z,29.51
2022-08-07T16:11:17.368Z,29.78
2022-08-07T16:14:11.998Z,29.95
2022-08-07T16:17:00.239Z,30.82
2022-08-07T16:20:04.656Z,30.89
2022-08-07T16:22:54.849Z,31.29
2022-08-07T16:26:00.549Z,30.66
2022-08-07T16:30:07.536Z,30.17
2022-08-07T16:31:51.238Z,29.63
2022-08-07T16:34:48.094Z,30.23
2022-08-07T16:38:02.787Z,29.80
2022-08-07T16:40:37.488Z,29.76
2022-08-07T16:44:02.271Z,29.58
2022-08-07T16:47:06.815Z,30.21
2022-08-07T16:50:28.442Z,29.92
2022-08-07T16:53:48.347Z,30.55
2022-08-07T16:55:53.469Z,29.77
2022-08-07T16:58:23.410Z,30.22
2022-08-07T17:01:27.189Z,31.60
2022-08-07T17:04:33.377Z,33.54
2022-08-07T17:07:10.168Z,34.09
2022-08-07T17:10:07.122Z,35.32
2022-08-07T17:12:53.100Z,35.70
2022-08-07T17:15:44.260Z,37.14
2022-08-07T17:18:26.479Z,37.16
2022-08-07T17:20:54.895Z,37.43
2022-08-07T17:23:43.257Z,37.83
2022-08-07T17:26:24.177Z,38.36
2022-08-07T17:30:12.672Z,38.21
2022-08-07T17:32:31.201Z,39.05
2022-08-07T17:35:51.817Z,39.36
2022-08-07T17:38:33.178Z,40.23
2022-08-07T17:42:00.750Z,40.30
2022-08-07T17:44:34.060Z,41.22
2022-08-07T17:47:17.190Z,40.85
2022-08-07T17:50:01.784Z,41.27
2022-08-07T17:52:41.164Z,42.39
2022-08-07T17:55:13.210Z,42.41
2022-08-07T17:58:07.469Z,42.66
2022-08-07T18:00:49.193Z,43.20
2022-08-07T18:03:25.604Z,43.21
2022-08-07T18:06:01.515Z,43.41
2022-08-07T18:08:34.588Z,44.17
2022-08-07T18:12:17.623Z,45.58
2022-08-07T18:14:18.731Z,45.48
2022-08-07T18:17:13.562Z,45.30
2022-08-07T18:21:02.299Z,46.00
2022-08-07T18:22:38.740Z,44.98
2022-08-07T18:25:23.977Z,45.36
2022-08-07T18:28:36.109Z,47.12
2022-08-07T18:31:18.428Z,46.77
2022-08-07T18:33:55.057Z,46.78
2022-08-07T18:36:53.874Z,47.76
2022-08-07T18:40:42.973Z,48.47
2022-08-07T18:43:36.899Z,48.50
2022-08-07T18:46:24.703Z,50.09
2022-08-07T18:50:30.132Z,49.90
2022-08-07T18:52:54.325Z,50.36
2022-08-07T18:55:57.265Z,50.88
2022-08-07T18:58:42.400Z,51.30
2022-08-07T19:02:18.263Z,51.88
2022-08-07T19:04:37.935Z,51.69
2022-08-07T19:07:34.190Z,52.13
2022-08-07T19:10:12.103Z,52.23
2022-08-07T19:12:57.763Z,52.22
2022-08-07T19:16:04.274Z,52.15
2022-08-07T19:18:34.595Z,52.79
2022-08-07T19:21:51.188Z,53.81
2022-08-07T19:24:36.207Z,53.89
2022-08-07T19:29:02.782Z,53.98
2022-08-07T19:31:05.262Z,54.50
2022-08-07T19:32:46.146Z,54.39
2022-08-07T19:35:19.666Z,55.52
2022-08-07T19:37:57.751Z,55.58
2022-08-07T19:40:31.889Z,56.30
2022-08-07T19:43:01.096Z,55.48
2022-08-07T19:46:05.540Z,56.13
2022-08-07T19:48:24.320Z,58.40
2022-08-07T19:50:54.564Z,57.64
2022-08-07T19:54:34.120Z,56.70
2022-08-07T19:57:52.348Z,57.06
2022-08-07T19:58:58.258Z,57.40
2022-08-07T20:01:52.943Z,57.12
2022-08-07T20:04:31.914Z,57.82
2022-08-07T20:07:09.216Z,58.47
2022-08-07T20:10:35.178Z,58.81
2022-08-07T20:12:34.908Z,58.77
2022-08-07T20:15:04.083Z,58.61
2022-08-07T20:17:38.702Z,58.94
2022-08-07T20:20:07.351Z,59.47
2022-08-07T20:22:36.007Z,59.43
2022-08-07T20:25:07.092Z,59.52
2022-08-07T20:27:57.955Z,60.30
2022-08-07T20:30:31.117Z,60.90
2022-08-07T20:33:00.466Z,60.18
2022-08-07T20:35:51.804Z,60.83
2022-08-07T20:38:21.529Z,61.01
2022-08-07T20:40:56.469Z,61.38
2022-08-07T20:43:27.931Z,61.94
2022-08-07T20:46:29.107Z,61.71
2022-08-07T20:49:53.958Z,62.43
2022-08-07T20:51:40.286Z,62.12
2022-08-07T20:54:09.481Z,62.71
2022-08-07T20:56:46.100Z,63.43
2022-08-07T21:00:04.499Z,64.44
2022-08-07T21:02:27.602Z,64.33
2022-08-07T21:04:54.940Z,63.69
2022-08-07T21:07:25.041Z,64.46
2022-08-07T21:09:59.371Z,64.33
2022-08-07T21:12:31.057Z,65.18
2022-08-07T21:14:59.705Z,65.18
2022-08-07T21:18:02.747Z,65.77
2022-08-07T21:20:30.362Z,65.88
2022-08-07T21:23:08.042Z,65.83
2022-08-07T21:26:09.448Z,66.50
2022-08-07T21:28:52.200Z,66.30
2022-08-07T21:32:10.857Z,66.67
2022-08-07T21:34:48.702Z,66.73
2022-08-07T21:37:24.340Z,67.80
2022-08-07T21:39:57.994Z,67.75
2022-08-07T21:42:49.197Z,67.74
2022-08-07T21:46:04.750Z,68.18
2022-08-07T21:48:27.883Z,69.60
2022-08-07T21:51:02.677Z,69.90
2022-08-07T21:53:46.441Z,69.89
2022-08-07T21:56:42.420Z,70.08
2022-08-07T22:00:05.063Z,69.71
2022-08-07T22:02:44.021Z,69.53
2022-08-07T22:05:43.979Z,69.03
2022-08-07T22:08:04.275Z,69.40
2022-08-07T22:10:33.819Z,69.92
2022-08-07T22:13:09.136Z,70.13
2022-08-07T22:16:41.169Z,70.61
2022-08-07T22:18:37.146Z,70.59
2022-08-07T22:22:01.822Z,71.15
2022-08-07T22:24:19.792Z,70.81
2022-08-07T22:26:50.465Z,70.03
2022-08-07T22:29:49.533Z,70.17
2022-08-07T22:32:42.337Z,71.36
2022-08-07T22:35:11.031Z,71.02
2022-08-07T22:38:03.718Z,71.84
2022-08-07T22:40:51.626Z,72.03
2022-08-07T22:43:25.073Z,72.06
2022-08-07T22:47:03.780Z,72.53
2022-08-07T22:49:59.639Z,72.20
2022-08-07T22:52:37.665Z,72.05
2022-08-07T22:55:17.789Z,71.97
2022-08-07T22:58:04.940Z,72.63
2022-08-07T23:00:38.677Z,72.37
2022-08-07T23:03:57.359Z,72.25
2022-08-07T23:06:51.538Z,72.43
2022-08-07T23:10:37.967Z,73.00
2022-08-07T23:13:05.063Z,72.33
2022-08-07T23:16:06.757Z,72.65
2022-08-07T23:19:38.840Z,72.38
2022-08-07T23:22:28.610Z,73.40
2022-08-07T23:25:21.113Z,74.25
2022-08-07T23:28:21.130Z,74.45
2022-08-07T23:31:06.462Z,74.19
2022-08-07T23:34:38.259Z,74.24
2022-08-07T23:37:37.252Z,75.67
2022-08-07T23:40:49.380Z,75.36
2022-08-07T23:43:23.994Z,74.52
2022-08-07T23:46:23.512Z,74.80
2022-08-07T23:49:05.167Z,75.38
2022-08-07T23:53:01.513Z,75.30
2022-08-07T23:54:52.073Z,75.16
2022-08-07T23:57:34.821Z,74.57
